Date,TemperatureHighF,TemperatureAvgF,TemperatureLowF,DewpointHighF,DewpointAvgF,DewpointLowF,HumidityHigh,HumidityAvg,HumidityLow,PressureMaxIn,PressureMinIn,WindSpeedMaxMPH,WindSpeedAvgMPH,GustSpeedMaxMPH,PrecipitationSumIn
2013-1-1,28,16,8,26,9,1,92,75,61,29.81,29.57,12,5,33,0.00
2013-1-2,15,6,-7,9,0,-12,87,76,57,30.08,29.73,14,3,35,0.00
2013-1-3,7,-2,-12,1,-8,-16,82,74,60,30.09,29.81,3,0,7,0.00
2013-1-4,30,21,5,25,17,0,91,86,71,29.80,29.64,14,4,35,0.00
2013-1-5,29,24,15,25,17,9,86,74,62,30.13,29.68,13,5,40,0.00
2013-1-6,29,26,20,28,24,18,100,91,88,29.90,29.80,3,1,7,0.00
2013-1-7,29,19,15,27,15,11,93,82,70,30.25,29.85,5,1,12,0.00
2013-1-8,38,26,17,25,20,13,88,77,57,30.29,30.09,6,2,14,0.13
2013-1-9,38,28,18,30,22,16,93,80,63,30.29,29.83,17,3,35,0.01
2013-1-10,36,33,27,30,25,22,90,73,62,30.47,29.89,16,4,33,0.01
2013-1-11,33,28,20,30,23,18,93,82,63,30.47,30.06,7,2,17,0.01
2013-1-12,39,35,32,37,34,30,95,94,93,30.09,30.02,4,1,13,0.33
2013-1-13,42,38,33,40,36,32,96,94,91,30.07,29.86,6,1,14,0.14
2013-1-14,49,40,31,46,33,22,96,77,46,30.20,29.76,10,3,26,0.01
2013-1-15,32,27,22,24,19,16,83,72,57,30.25,30.15,7,1,15,0.00
2013-1-16,27,25,23,25,22,18,92,87,79,30.16,29.68,5,1,12,0.00
2013-1-17,30,19,3,27,11,-6,91,71,39,30.05,29.68,11,3,26,0.00
2013-1-18,15,6,-4,1,-7,-15,69,54,41,30.22,30.02,11,2,32,0.00
2013-1-19,35,24,11,26,18,3,89,77,62,30.13,29.67,9,3,20,0.00
2013-1-20,41,32,12,31,22,5,91,67,53,29.82,29.34,20,7,46,0.13
2013-1-21,17,10,0,7,2,-4,85,71,48,29.92,29.68,12,2,25,0.01
2013-1-22,14,6,-1,6,-2,-14,85,71,49,29.91,29.67,11,3,23,0.00
2013-1-23,-1,-7,-14,-9,-17,-20,73,60,41,30.00,29.91,11,2,21,0.00
2013-1-24,7,-4,-16,-10,-16,-22,77,60,35,30.16,29.95,11,3,33,0.00
2013-1-25,13,2,-8,-3,-7,-13,80,65,45,30.19,29.97,5,1,9,0.00
2013-1-26,13,6,-2,-1,-4,-8,83,65,41,30.08,29.94,7,2,20,0.00
2013-1-27,17,10,5,0,-5,-9,64,50,33,30.37,30.31,5,2,16,0.00
2013-1-28,17,10,0,14,4,-7,89,77,60,30.35,29.93,2,0,6,0.00
2013-1-29,30,22,13,27,19,10,93,89,84,30.09,29.95,7,1,16,0.00
2013-1-30,49,39,30,48,38,28,98,95,93,29.97,29.28,7,3,20,0.61
2013-1-31,47,30,21,46,22,7,96,72,51,29.39,28.87,23,11,43,0.55
2013-2-1,20,15,11,9,6,1,82,67,58,29.85,29.39,14,6,35,0.01
2013-2-2,18,15,8,12,7,2,87,72,58,30.04,29.91,9,2,17,0.00
2013-2-3,25,16,7,13,9,4,88,75,55,29.92,29.62,2,0,10,0.01
2013-2-4,19,14,5,12,4,-5,86,65,44,29.78,29.59,16,5,32,0.01
2013-2-5,19,9,-2,3,-4,-10,71,55,37,29.90,29.78,4,1,12,0.00
2013-2-6,27,17,10,21,6,-10,84,64,38,30.23,29.78,8,2,29,0.02
2013-2-7,14,7,-2,-5,-7,-10,69,52,38,30.42,30.21,7,1,20,0.01
2013-2-8,21,17,12,18,14,8,89,86,84,30.24,29.83,5,2,15,0.00
2013-2-9,15,11,7,12,4,-2,87,72,57,30.18,29.81,9,4,24,0.00
2013-2-10,26,15,3,7,1,-3,77,55,36,30.34,30.19,5,1,9,0.11
2013-2-11,32,26,17,30,19,4,94,76,45,30.20,29.52,7,3,18,0.01
2013-2-12,32,31,28,30,28,24,94,88,84,29.75,29.50,11,4,29,0.00
2013-2-13,33,29,27,25,23,21,87,77,62,29.75,29.67,9,2,18,0.00
2013-2-14,32,28,25,23,20,17,86,71,57,29.87,29.66,5,1,12,0.01
2013-2-15,30,28,27,26,22,19,90,77,68,29.85,29.78,9,1,58,0.01
2013-2-16,27,21,15,16,8,2,65,55,48,29.88,29.78,5,2,12,0.00
2013-2-17,14,10,6,4,2,-1,77,67,57,29.78,29.50,10,3,29,0.00
2013-2-18,22,11,3,1,-4,-9,81,53,25,30.03,29.66,12,4,30,0.00
2013-2-19,36,24,9,29,10,-7,92,57,28,30.04,29.52,10,2,22,0.01
2013-2-20,31,24,19,29,19,15,93,82,65,29.63,29.45,13,4,29,0.01
2013-2-21,23,15,8,17,9,3,85,77,65,30.24,29.63,11,4,30,0.00
2013-2-22,31,26,20,21,19,16,87,75,64,30.34,30.18,7,1,13,0.00
2013-2-23,30,29,28,27,24,19,93,82,66,30.18,29.86,8,2,18,0.00
2013-2-24,33,30,28,31,28,26,94,92,89,29.86,29.70,2,0,6,0.00
2013-2-25,35,30,28,30,28,25,92,89,81,30.16,29.85,4,1,13,0.00
2013-2-26,38,32,28,30,28,26,94,84,70,30.25,30.09,7,2,15,0.13
2013-2-27,34,31,29,31,28,25,94,88,80,30.09,29.59,7,1,14,0.05
2013-2-28,39,33,29,36,31,27,94,91,83,29.59,29.50,3,1,8,0.30
2013-3-1,34,30,28,30,26,24,93,85,73,29.67,29.51,7,2,16,0.01
2013-3-2,33,27,21,25,22,18,90,82,67,29.67,29.63,7,2,17,0.01
2013-3-3,29,24,20,24,20,17,91,87,80,29.64,29.56,3,1,7,0.05
2013-3-4,27,22,20,21,18,16,89,84,74,29.77,29.58,5,2,15,0.01
2013-3-5,36,28,22,28,23,18,88,82,71,30.03,29.78,6,2,15,0.01
2013-3-6,38,33,30,29,25,19,89,73,56,30.14,30.03,14,5,23,0.01
2013-3-7,34,30,27,23,21,19,74,69,62,30.13,30.06,7,3,16,0.00
2013-3-8,42,32,27,24,22,20,82,68,44,30.24,30.05,8,2,20,0.00
2013-3-9,51,36,22,24,20,15,86,55,26,30.27,30.21,8,2,15,0.00
2013-3-10,50,39,27,27,22,20,77,53,34,30.28,30.12,7,3,16,0.00
2013-3-11,44,40,36,34,29,26,78,65,56,30.15,29.96,9,3,20,0.00
2013-3-12,46,42,36,45,40,34,95,92,78,29.96,29.66,9,3,17,0.95
2013-3-13,39,35,31,35,30,24,95,83,56,29.75,29.67,9,2,20,0.41
2013-3-14,29,21,13,21,12,3,86,67,55,29.78,29.63,12,4,23,0.00
2013-3-15,33,21,12,24,11,3,90,66,37,29.78,29.49,7,3,18,0.00
2013-3-16,27,21,13,19,12,8,86,69,50,29.81,29.61,6,2,21,0.01
2013-3-17,22,15,6,10,4,-3,88,65,38,30.23,29.81,10,3,28,0.01
2013-3-18,31,20,5,7,1,-3,76,46,26,30.33,30.07,8,1,24,0.00
2013-3-19,28,25,23,26,22,4,91,88,35,30.08,29.64,9,2,24,0.00
2013-3-20,31,25,21,25,20,16,92,83,70,29.65,29.56,10,3,20,0.07
2013-3-21,34,25,17,18,15,13,85,67,42,29.64,29.54,7,2,16,0.20
2013-3-22,34,24,14,21,17,11,90,75,50,29.65,29.55,9,2,25,0.14
2013-3-23,32,27,22,25,22,18,89,80,62,29.71,29.55,12,5,35,0.08
2013-3-24,38,30,26,24,22,20,84,72,54,29.78,29.70,8,2,18,0.10
2013-3-25,41,33,22,26,23,19,89,68,44,29.74,29.51,7,2,14,0.01
2013-3-26,43,35,30,25,22,18,77,61,38,29.74,29.55,9,3,17,0.00
2013-3-27,43,36,30,31,26,21,92,67,51,29.87,29.70,9,2,20,0.00
2013-3-28,46,37,31,33,31,29,93,78,55,29.99,29.85,7,1,15,0.01
2013-3-29,45,39,35,35,32,28,92,76,59,30.01,29.95,10,2,18,0.02
2013-3-30,47,39,30,29,20,11,83,50,24,30.05,29.99,10,2,20,0.01
2013-3-31,51,41,26,34,21,-100,87,49,31,30.04,29.71,10,4,25,0.01
2013-4-1,41,34,26,39,29,13,94,83,54,29.71,29.46,15,5,31,0.40
2013-4-2,30,24,19,18,14,10,88,66,46,29.78,29.66,14,8,35,0.01
2013-4-3,36,28,22,22,12,6,81,52,30,30.09,29.76,17,9,43,0.00
2013-4-4,47,36,24,19,13,8,57,40,24,30.16,29.85,9,4,25,0.00
2013-4-5,45,38,28,29,21,14,74,51,36,29.87,29.72,13,4,22,0.00
2013-4-6,35,27,19,16,7,1,73,43,24,30.23,29.87,8,3,23,0.00
2013-4-7,51,40,28,32,19,5,63,43,34,30.22,29.81,17,5,26,0.00
2013-4-8,51,43,37,35,30,27,76,62,45,30.09,29.83,10,2,20,0.00
2013-4-9,47,42,38,41,37,28,95,85,53,29.99,29.81,5,1,18,0.23
2013-4-10,46,41,37,43,38,35,95,92,81,29.96,29.88,3,0,7,0.17
2013-4-11,39,35,30,36,23,16,91,64,42,30.14,29.86,6,2,16,0.02
2013-4-12,30,29,28,28,24,16,93,83,58,30.14,29.80,6,2,15,0.00
2013-4-13,46,36,30,38,32,28,94,88,66,29.84,29.73,6,1,15,0.57
2013-4-14,41,36,32,34,32,27,94,83,69,30.17,29.83,6,2,20,0.29
2013-4-15,55,41,25,34,30,23,93,67,40,30.30,30.16,7,2,14,0.01
2013-4-16,53,46,41,50,38,32,93,74,61,30.24,29.93,7,4,18,0.12
2013-4-17,53,46,38,35,30,25,69,54,41,30.32,30.13,10,3,18,0.10
2013-4-18,56,44,32,37,30,23,83,60,46,30.34,29.96,10,3,30,0.02
2013-4-19,72,59,48,59,50,33,91,73,51,29.96,29.48,16,6,30,0.38
2013-4-20,48,40,31,46,30,19,92,68,44,30.19,29.60,14,6,30,0.40
2013-4-21,44,34,26,21,16,14,72,50,30,30.63,30.19,10,3,21,0.01
2013-4-22,51,39,25,23,18,11,74,46,24,30.68,30.51,14,4,20,0.00
2013-4-23,46,38,29,35,29,22,83,70,53,30.54,30.13,10,4,17,0.00
2013-4-24,73,53,36,49,38,32,90,62,24,30.13,29.63,11,3,20,0.02
2013-4-25,60,46,37,50,30,22,84,55,33,30.26,29.62,14,5,31,0.04
2013-4-26,54,42,31,35,28,22,80,59,40,30.40,30.26,7,1,15,0.00
2013-4-27,58,46,32,36,29,20,90,56,29,30.40,30.27,6,1,13,0.00
2013-4-28,63,46,34,36,27,-100,71,51,29,30.29,30.15,7,1,14,0.00
2013-4-29,65,56,46,43,37,33,63,50,34,30.19,30.11,12,3,26,0.00
2013-4-30,69,59,50,48,42,36,68,54,42,30.29,30.17,10,2,16,0.00
2013-5-1,76,63,49,39,33,26,50,34,21,30.43,30.29,7,2,14,0.00
2013-5-2,79,64,52,43,36,26,51,36,24,30.42,30.31,7,2,16,0.00
2013-5-3,68,55,42,37,33,25,65,46,29,30.50,30.32,8,3,20,0.00
2013-5-4,75,68,57,44,35,27,62,31,18,30.32,30.17,7,2,16,0.00
2013-5-5,76,65,50,36,34,30,51,32,20,30.25,30.11,9,2,13,0.00
2013-5-6,77,69,60,40,29,14,35,23,10,30.20,30.04,9,2,16,0.00
2013-5-7,81,66,49,43,33,21,57,32,17,30.13,30.03,6,2,18,0.00
2013-5-8,75,63,52,58,49,37,90,62,38,30.17,30.05,9,2,23,0.10
2013-5-9,70,61,55,57,55,51,94,81,51,30.05,29.86,9,2,22,0.09
2013-5-10,71,58,51,59,52,-100,96,85,54,29.96,29.82,5,1,10,0.04
2013-5-11,65,59,51,61,56,48,95,90,81,29.82,29.57,7,2,20,0.15
2013-5-12,59,50,40,48,39,-100,94,70,40,29.71,29.58,10,3,25,0.01
2013-5-13,47,41,36,34,28,24,83,61,47,30.00,29.70,12,4,26,0.00
2013-5-14,54,43,32,34,27,22,92,58,29,30.05,29.95,6,2,17,0.00
2013-5-15,63,44,30,46,34,25,92,70,31,30.00,29.60,10,3,23,0.05
2013-5-16,72,52,44,46,23,-100,95,62,25,29.85,29.58,13,3,29,0.01
2013-5-17,61,51,42,41,34,-100,89,62,41,30.20,29.85,7,2,18,0.00
2013-5-18,71,55,39,45,37,30,91,56,24,30.28,30.20,5,1,16,0.00
2013-5-19,67,56,47,54,46,37,94,73,50,30.28,30.11,6,2,16,0.24
2013-5-20,65,57,52,60,55,50,96,92,79,30.11,29.97,7,1,14,0.28
2013-5-21,71,60,54,66,57,52,96,89,74,30.00,29.85,8,1,23,0.85
2013-5-22,74,60,50,65,57,49,97,92,73,29.90,29.80,7,2,15,1.46
2013-5-23,75,64,59,67,61,58,97,88,64,29.81,29.70,8,2,21,0.74
2013-5-24,60,49,42,59,47,40,99,94,89,29.97,29.67,6,1,17,0.61
2013-5-25,42,39,34,40,37,32,94,93,92,29.95,29.80,9,4,30,1.23
2013-5-26,47,40,35,41,37,33,97,88,76,30.04,29.78,6,2,23,0.37
2013-5-27,63,49,32,43,35,30,95,65,34,30.16,30.01,7,2,25,0.01
2013-5-28,70,56,38,45,40,34,93,59,31,30.22,30.10,6,1,15,0.00
2013-5-29,58,55,51,57,52,43,96,89,61,30.12,29.95,5,1,12,0.40
2013-5-30,81,68,58,65,61,57,97,79,52,30.08,29.97,9,2,26,0.02
2013-5-31,88,78,59,67,62,56,95,60,45,30.09,29.92,7,2,16,0.00
2013-6-1,87,75,64,68,63,58,90,67,41,29.96,29.83,8,2,24,0.17
2013-6-2,85,69,61,71,64,-100,96,87,53,29.86,29.67,7,2,24,0.43
2013-6-3,69,61,52,60,53,41,96,77,57,29.84,29.77,9,2,21,0.03
2013-6-4,60,52,45,45,42,39,80,69,51,30.09,29.83,6,2,22,0.00
2013-6-5,68,56,44,44,40,35,85,57,30,30.19,30.09,5,1,15,0.00
2013-6-6,66,55,48,51,46,39,94,73,51,30.18,30.08,8,1,14,0.09
2013-6-7,53,50,49,51,49,47,95,94,90,30.08,29.88,5,1,14,0.92
2013-6-8,63,55,50,57,53,49,96,91,76,30.01,29.75,6,1,20,0.59
2013-6-9,72,60,53,57,54,47,96,80,52,30.20,30.01,7,1,21,0.02
2013-6-10,71,60,49,57,52,45,95,76,41,30.22,30.00,6,1,14,0.09
2013-6-11,57,54,53,56,53,51,95,95,93,30.00,29.59,3,0,10,1.75
2013-6-12,62,55,51,54,51,49,96,87,70,29.85,29.60,6,2,18,0.43
2013-6-13,66,56,45,56,50,43,96,81,57,29.83,29.70,5,1,13,0.01
2013-6-14,74,62,50,56,51,44,96,71,44,29.83,29.69,6,2,18,0.00
2013-6-15,71,62,51,47,43,38,70,50,36,29.94,29.84,7,2,21,0.00
2013-6-16,67,58,47,58,52,44,95,81,63,29.91,29.70,5,1,10,0.36
2013-6-17,73,64,53,61,57,52,96,78,55,29.83,29.76,7,3,20,0.13
2013-6-18,66,59,54,52,47,41,88,65,49,29.98,29.92,6,2,12,0.00
2013-6-19,67,58,47,46,42,36,78,58,38,30.18,29.96,7,1,17,0.00
2013-6-20,73,56,42,51,44,40,93,68,34,30.25,30.17,6,1,14,0.00
2013-6-22,78,67,62,65,62,60,95,85,64,30.19,30.13,3,1,7,0.22
2013-6-23,82,70,62,72,66,61,96,90,70,30.14,29.98,5,1,13,1.67
2013-6-24,84,71,65,70,67,64,97,88,61,30.00,29.90,7,2,18,0.08
2013-6-25,83,71,64,72,67,62,96,86,62,29.88,29.77,5,1,12,0.78
2013-6-26,70,66,63,68,64,62,97,95,87,29.83,29.76,5,0,12,0.45
2013-6-27,80,70,62,69,65,61,97,85,59,29.83,29.75,5,1,15,0.03
2013-6-28,73,65,59,68,62,58,96,91,80,29.75,29.44,8,2,18,0.86
2013-6-29,78,67,61,68,63,59,96,86,59,29.68,29.49,9,1,20,0.07
2013-6-30,82,70,60,66,63,59,96,79,54,29.95,29.69,5,1,14,0.22
2013-7-1,70,65,59,66,63,57,96,91,81,30.10,29.94,3,1,10,0.25
2013-7-2,76,65,59,71,63,58,100,93,83,30.16,30.07,5,1,9,0.41
2013-7-3,80,70,64,73,68,63,97,93,72,30.19,30.13,6,1,20,0.66
2013-7-4,86,73,67,75,69,66,97,90,63,30.21,30.11,5,1,20,1.34
2013-7-5,84,72,65,74,69,64,97,90,67,30.19,30.06,5,1,12,1.60
2013-7-6,81,72,67,70,67,64,97,87,60,30.09,30.02,6,1,20,0.03
2013-7-7,83,71,63,71,64,57,92,81,59,30.04,29.95,4,1,12,0.01
2013-7-8,74,69,65,72,67,64,96,94,86,30.07,29.96,2,0,5,0.53
2013-7-9,80,69,64,73,67,63,97,93,69,30.10,30.02,5,1,18,0.42
2013-7-10,72,68,66,70,64,-100,97,94,92,30.05,29.76,6,2,14,0.06
2013-7-11,78,69,61,68,63,56,97,83,55,30.03,29.75,4,1,16,0.52
2013-7-12,80,66,56,61,56,52,91,72,46,30.20,30.03,4,1,9,0.04
2013-7-13,76,68,57,65,61,52,93,78,65,30.32,30.22,5,1,12,0.00
2013-7-14,84,73,65,72,67,63,95,83,63,30.33,30.24,3,0,8,0.00
2013-7-15,88,75,65,73,66,62,96,77,47,30.26,30.17,6,1,16,0.00
2013-7-16,86,77,66,70,66,62,89,70,54,30.24,30.19,4,1,15,0.00
2013-7-17,89,77,64,72,69,62,95,77,57,30.25,29.99,6,2,16,0.83
2013-7-18,85,76,69,74,70,67,94,84,63,30.06,29.97,5,1,16,1.00
2013-7-19,88,76,67,76,70,64,97,82,59,29.96,29.68,10,3,37,0.15
2013-7-20,78,72,65,70,64,55,91,76,56,29.83,29.66,10,3,30,0.27
2013-7-21,75,65,57,59,55,50,90,72,49,30.04,29.84,4,1,12,0.07
2013-7-22,77,64,52,66,57,49,91,78,58,30.04,29.89,6,1,12,0.00
2013-7-23,71,66,63,68,64,62,96,94,88,29.89,29.59,2,0,10,1.05
2013-7-24,66,61,51,63,56,45,97,85,70,30.03,29.58,7,1,16,0.17
2013-7-25,70,58,45,54,49,43,93,72,51,30.14,30.04,6,1,14,0.02
2013-7-26,71,62,54,60,55,50,89,79,65,30.11,30.01,4,1,14,0.00
2013-7-27,79,67,51,64,58,49,95,73,49,30.06,29.98,5,1,12,0.00
2013-7-28,74,67,61,66,62,59,95,85,70,30.02,29.94,6,2,15,0.24
2013-7-29,77,68,61,66,61,54,96,81,48,30.09,29.96,10,2,22,0.88
2013-7-30,73,64,56,58,56,53,92,74,54,30.13,30.07,9,2,20,0.01
2013-7-31,78,66,52,61,56,50,94,74,46,30.14,30.03,6,1,13,0.00
2013-8-1,76,63,57,63,59,55,96,87,60,30.03,29.83,9,2,20,0.24
2013-8-2,75,66,57,65,59,54,97,81,54,29.84,29.78,9,2,21,0.22
2013-8-3,70,62,55,62,56,53,96,83,61,29.84,29.77,10,2,22,0.14
2013-8-4,68,60,53,60,55,52,96,84,60,29.85,29.81,9,2,26,0.21
2013-8-5,67,59,49,48,46,41,89,62,41,30.05,29.96,7,2,18,0.14
2013-8-6,74,59,46,55,50,44,95,74,45,30.13,30.04,5,1,13,0.01
2013-8-7,74,65,55,61,56,51,88,74,55,30.16,30.03,11,3,21,0.00
2013-8-8,79,69,63,69,63,57,92,81,65,30.03,29.97,5,2,12,0.01
2013-8-9,72,68,65,69,66,62,96,94,89,29.98,29.78,3,0,7,0.23
2013-8-10,70,64,56,65,54,47,96,71,48,30.03,29.80,9,2,22,0.18
2013-8-11,73,63,53,57,52,47,89,71,49,30.08,30.00,6,1,20,0.00
2013-8-12,74,63,52,61,55,50,95,77,50,30.03,29.91,7,1,15,0.00
2013-8-13,69,61,57,64,56,-100,95,89,80,29.91,29.68,6,1,12,0.05
2013-8-21,82,69,57,66,62,55,95,79,52,30.16,30.02,5,1,12,0.00
2013-8-22,82,70,62,66,63,59,95,79,54,30.03,29.84,5,2,16,0.27
2013-8-23,70,62,53,62,54,49,93,76,49,30.19,29.87,6,2,21,0.03
2013-8-24,74,58,44,57,49,42,95,75,44,30.35,30.20,3,1,7,0.00
2013-8-25,75,60,47,57,49,-100,94,72,47,30.37,30.15,5,1,12,0.00
2013-8-26,69,63,59,66,60,55,95,91,86,30.16,29.91,3,1,12,0.09
2013-8-27,81,72,64,70,66,63,96,83,65,29.94,29.88,2,0,6,0.00
2013-9-3,72,62,58,63,59,56,97,89,68,29.81,29.71,5,1,13,0.03
2013-9-4,69,61,55,58,56,52,95,84,58,29.92,29.81,9,2,22,0.19
2013-9-5,61,54,44,56,45,37,95,74,46,30.14,29.90,5,1,17,0.01
2013-9-6,63,50,36,47,41,34,95,73,43,30.23,30.05,5,1,14,0.01
2013-9-7,68,57,47,54,49,45,91,76,53,30.04,29.83,6,1,12,0.00
2013-9-8,58,53,50,54,44,-100,95,77,54,29.98,29.75,7,2,18,0.14
2013-9-9,67,55,37,47,43,35,95,67,39,30.18,30.06,5,2,13,0.00
2013-9-11,88,74,66,73,69,65,97,85,58,30.03,29.92,7,2,16,0.06
2013-9-12,75,67,64,69,65,63,96,92,79,29.97,29.66,3,1,9,0.63
2013-9-13,63,57,52,62,55,49,96,94,89,29.83,29.63,4,1,16,0.77
2013-9-14,60,51,45,51,48,43,95,88,69,30.06,29.81,3,1,12,0.02
2013-9-15,64,48,39,53,42,-100,96,86,56,30.12,30.01,2,0,12,0.00
2013-9-16,54,48,38,51,43,34,95,85,62,30.29,30.00,7,1,18,0.04
2013-9-17,61,46,31,45,38,29,94,77,47,30.43,30.29,5,1,10,0.01
2013-9-18,43,39,36,42,38,34,100,94,92,30.30,30.27,0,0,3,0.00
2013-9-19,74,57,42,54,48,40,95,74,43,30.14,30.04,3,0,13,0.00
2013-9-20,75,61,47,58,52,45,95,74,48,30.08,29.95,5,2,16,0.00
2013-9-21,70,62,54,60,55,51,91,79,57,29.95,29.60,10,4,24,0.00
2013-9-22,62,53,45,60,48,-100,96,86,75,29.85,29.56,7,2,20,0.67
2013-9-23,50,44,41,41,39,36,86,80,70,30.00,29.85,5,2,16,0.01
2013-9-24,57,49,42,44,41,37,84,75,58,29.99,29.88,5,2,18,0.00
2013-9-25,58,52,45,49,46,42,90,81,69,30.01,29.90,3,1,12,0.00
2013-9-26,57,50,44,48,45,41,93,83,68,30.16,30.01,7,2,17,0.00
2013-9-27,66,55,50,53,49,47,91,81,59,30.29,30.16,3,0,6,0.00
2013-9-28,71,55,42,55,48,40,96,79,51,30.37,30.26,4,1,9,0.00
2013-10-2,73,60,47,61,52,46,96,77,52,29.96,29.83,10,3,29,0.00
2013-10-3,71,60,49,50,46,43,82,63,42,30.10,29.96,7,1,15,0.00
2013-10-4,63,54,45,53,48,43,94,80,65,30.11,30.04,2,0,7,0.00
2013-10-5,63,54,47,51,45,38,86,71,57,30.15,30.08,2,0,6,0.00
2013-10-6,54,49,46,47,43,38,95,79,62,30.17,30.08,8,2,17,0.19
2013-10-7,63,54,48,62,53,47,96,95,93,30.08,29.62,10,4,23,0.69
2013-10-8,57,49,41,48,38,34,93,68,45,30.37,29.86,9,2,21,0.03
2013-10-9,61,47,33,42,36,31,94,69,34,30.45,30.34,6,1,13,0.00
2013-10-10,64,49,38,45,39,35,93,70,42,30.34,30.19,2,0,5,0.00
2013-10-18,59,51,47,50,45,34,96,79,57,29.85,29.60,14,4,30,0.57
2013-10-19,60,51,41,46,41,36,91,70,50,29.89,29.67,8,2,14,0.06
2013-10-20,53,47,43,45,35,-100,94,67,46,29.95,29.60,13,5,32,0.05
2013-10-21,58,47,34,43,37,31,93,70,51,30.04,29.87,5,2,13,0.00
2013-10-22,52,46,37,46,38,27,90,75,61,29.87,29.66,8,3,20,0.05
2013-10-23,49,40,34,34,30,27,84,68,46,29.73,29.58,9,1,17,0.01
2013-10-24,43,36,30,35,30,24,92,80,58,29.81,29.61,11,3,30,0.12
2013-10-25,39,36,34,32,28,25,91,74,64,30.06,29.81,8,2,17,0.04
2013-10-26,42,35,29,35,30,24,93,83,59,30.06,29.76,6,2,17,0.07
2013-10-27,43,38,36,37,30,-100,90,76,58,29.96,29.70,12,3,29,0.04
2013-10-28,40,35,28,37,27,-100,89,75,57,30.32,29.95,12,2,24,0.05
2013-10-29,41,30,21,26,21,17,92,71,48,30.41,30.29,5,1,13,0.01
2013-10-30,40,32,27,32,27,20,86,80,73,30.29,30.14,6,1,15,0.00
2013-10-31,52,39,32,51,37,29,96,92,85,30.18,29.66,5,1,15,0.49
2013-11-1,63,57,51,58,50,41,97,79,52,29.62,29.26,14,6,33,0.60
2013-11-2,52,46,34,44,40,31,90,80,69,29.83,29.57,7,2,16,0.03
2013-11-3,34,30,25,31,18,-100,90,65,47,30.30,29.82,10,3,23,0.02
2014-1-1,14,10,8,6,4,2,86,78,66,30.25,29.99,12,2,23,0.00